createdAt,value
2018-02-04T00:00:14.423Z,0
2018-02-04T00:01:15.883Z,0
2018-02-04T00:02:17.279Z,0
2018-02-04T00:03:18.706Z,0
2018-02-04T00:04:20.061Z,0
2018-02-04T00:05:21.457Z,0
2018-02-04T00:06:22.929Z,0
2018-02-04T00:07:24.412Z,0
2018-02-04T00:08:25.782Z,0
2018-02-04T00:09:27.172Z,0
2018-02-04T00:10:28.572Z,0
2018-02-04T00:11:29.944Z,0
2018-02-04T00:12:31.404Z,0
2018-02-04T00:13:32.780Z,0
2018-02-04T00:14:34.281Z,0
2018-02-04T00:15:35.731Z,0
2018-02-04T00:16:37.197Z,0
2018-02-04T00:17:38.614Z,0
2018-02-04T00:18:40.005Z,0
2018-02-04T00:19:41.492Z,0
2018-02-04T00:20:42.930Z,0
2018-02-04T00:21:44.403Z,0
2018-02-04T00:22:45.852Z,0
2018-02-04T00:23:47.270Z,0
2018-02-04T00:24:48.682Z,0
2018-02-04T00:25:50.194Z,0
2018-02-04T00:26:51.608Z,0
2018-02-04T00:27:53.044Z,0
2018-02-04T00:28:54.533Z,0
2018-02-04T00:29:55.963Z,0
2018-02-04T00:30:57.795Z,0
2018-02-04T00:31:59.169Z,0
2018-02-04T00:33:00.592Z,0
2018-02-04T00:34:02.045Z,0
2018-02-04T00:35:03.487Z,0
2018-02-04T00:36:04.914Z,0
2018-02-04T00:37:06.325Z,0
2018-02-04T00:38:07.825Z,0
2018-02-04T00:39:09.277Z,0
2018-02-04T00:40:10.654Z,0
2018-02-04T00:41:12.315Z,0
2018-02-04T00:42:13.811Z,0
2018-02-04T00:43:15.478Z,0
2018-02-04T00:44:17.011Z,0
2018-02-04T00:45:18.465Z,0
2018-02-04T00:46:19.881Z,0
2018-02-04T00:47:21.630Z,0
2018-02-04T00:48:23.345Z,0
2018-02-04T00:49:24.711Z,0
2018-02-04T00:50:26.218Z,0
2018-02-04T00:51:29.366Z,0
2018-02-04T00:52:30.745Z,0
2018-02-04T00:53:32.208Z,0
2018-02-04T00:54:33.767Z,0
2018-02-04T00:55:35.193Z,0
2018-02-04T00:56:36.607Z,0
2018-02-04T00:57:38.116Z,0
2018-02-04T00:58:39.699Z,0
2018-02-04T00:59:41.257Z,0
2018-02-04T01:00:42.646Z,0
2018-02-04T01:01:44.018Z,0
2018-02-04T01:02:45.401Z,0
2018-02-04T01:03:46.776Z,0
2018-02-04T01:04:48.278Z,0
2018-02-04T01:05:49.804Z,0
2018-02-04T01:06:51.449Z,0
2018-02-04T01:07:52.860Z,0
2018-02-04T01:08:54.472Z,0
2018-02-04T01:09:56.011Z,0
2018-02-04T01:10:57.757Z,0
2018-02-04T01:11:59.192Z,0
2018-02-04T01:13:00.619Z,0
2018-02-04T01:14:01.993Z,0
2018-02-04T01:15:03.486Z,0
2018-02-04T01:16:04.906Z,0
2018-02-04T01:17:06.439Z,0
2018-02-04T01:18:08.127Z,0
2018-02-04T01:19:09.577Z,0
2018-02-04T01:20:11.343Z,0
2018-02-04T01:21:12.793Z,0
2018-02-04T01:22:14.314Z,0
2018-02-04T01:23:15.874Z,0
2018-02-04T01:24:17.323Z,0
2018-02-04T01:25:18.902Z,0
2018-02-04T01:26:20.398Z,0
2018-02-04T01:27:21.806Z,0
2018-02-04T01:28:23.265Z,0
2018-02-04T01:29:24.956Z,0
2018-02-04T01:30:26.424Z,0
2018-02-04T01:31:28.094Z,0
2018-02-04T01:32:29.461Z,0
2018-02-04T01:33:30.911Z,0
2018-02-04T01:34:32.285Z,0
2018-02-04T01:35:33.833Z,0
2018-02-04T01:36:35.261Z,0
2018-02-04T01:37:36.709Z,0
2018-02-04T01:38:38.133Z,0
2018-02-04T01:39:39.561Z,0
2018-02-04T01:40:41.103Z,0
2018-02-04T01:41:42.478Z,0
2018-02-04T01:42:43.943Z,0
2018-02-04T01:43:45.343Z,0
2018-02-04T01:44:46.743Z,0
2018-02-04T01:45:48.259Z,0
2018-02-04T01:46:49.827Z,0
2018-02-04T01:47:51.441Z,0
2018-02-04T01:48:53.555Z,0
2018-02-04T01:49:54.999Z,0
2018-02-04T01:50:56.561Z,0
2018-02-04T01:51:58.054Z,0
2018-02-04T01:52:59.516Z,0
2018-02-04T01:54:00.916Z,0
2018-02-04T01:55:02.300Z,0
2018-02-04T01:56:03.734Z,0
2018-02-04T01:57:05.236Z,0
2018-02-04T01:58:06.606Z,0
2018-02-04T01:59:08.207Z,0
2018-02-04T02:00:09.812Z,0
2018-02-04T02:01:11.524Z,0
2018-02-04T02:02:13.152Z,0
2018-02-04T02:03:14.632Z,0
2018-02-04T02:04:16.099Z,0
2018-02-04T02:05:17.659Z,0
2018-02-04T02:06:19.243Z,0
2018-02-04T02:07:20.859Z,0
2018-02-04T02:08:22.596Z,0
2018-02-04T02:09:23.993Z,0
2018-02-04T02:10:25.376Z,0
2018-02-04T02:11:26.749Z,0
2018-02-04T02:12:28.240Z,0
2018-02-04T02:13:29.713Z,0
2018-02-04T02:14:31.270Z,0
2018-02-04T02:15:32.702Z,0
2018-02-04T02:16:34.221Z,0
2018-02-04T02:17:35.630Z,0
2018-02-04T02:18:37.218Z,0
2018-02-04T02:19:38.665Z,0
2018-02-04T02:20:40.201Z,0
2018-02-04T02:21:41.604Z,0
2018-02-04T02:22:43.091Z,0
2018-02-04T02:23:44.545Z,0
2018-02-04T02:24:45.996Z,0
2018-02-04T02:25:47.368Z,0
2018-02-04T02:26:48.854Z,0
2018-02-04T02:27:50.312Z,0
2018-02-04T02:28:51.722Z,0
2018-02-04T02:29:53.243Z,0
2018-02-04T02:30:54.624Z,0
2018-02-04T02:31:56.106Z,0
2018-02-04T02:32:57.495Z,0
2018-02-04T02:33:58.969Z,0
2018-02-04T02:35:00.639Z,0
2018-02-04T02:36:01.984Z,0
2018-02-04T02:37:03.396Z,0
2018-02-04T02:38:04.766Z,0
2018-02-04T02:39:06.250Z,0
2018-02-04T02:40:07.642Z,0
2018-02-04T02:41:09.137Z,0
2018-02-04T02:42:10.592Z,0
2018-02-04T02:43:11.977Z,0
2018-02-04T02:44:13.687Z,0
2018-02-04T02:45:15.191Z,0
2018-02-04T02:46:16.636Z,0
2018-02-04T02:47:17.968Z,0
2018-02-04T02:48:19.346Z,0
2018-02-04T02:49:20.747Z,0
2018-02-04T02:50:22.268Z,0
2018-02-04T02:51:23.685Z,0
2018-02-04T02:52:25.110Z,0
2018-02-04T02:53:26.488Z,0
2018-02-04T02:54:27.903Z,0
2018-02-04T02:55:29.394Z,0
2018-02-04T02:56:30.757Z,0
2018-02-04T02:57:32.137Z,0
2018-02-04T02:58:33.541Z,0
2018-02-04T02:59:35.052Z,0
2018-02-04T03:00:36.623Z,0
2018-02-04T03:01:38.003Z,0
2018-02-04T03:02:39.455Z,0
2018-02-04T03:03:40.892Z,0
2018-02-04T03:04:42.286Z,0
2018-02-04T03:05:43.773Z,0
2018-02-04T03:06:45.287Z,0
2018-02-04T03:07:46.773Z,0
2018-02-04T03:08:48.166Z,0
2018-02-04T03:09:49.643Z,0
2018-02-04T03:10:51.497Z,0
2018-02-04T03:11:52.891Z,0
2018-02-04T03:12:54.313Z,0
2018-02-04T03:13:56.051Z,0
2018-02-04T03:14:57.512Z,0
2018-02-04T03:15:58.990Z,0
2018-02-04T03:17:00.640Z,0
2018-02-04T03:18:02.390Z,0
2018-02-04T03:19:03.849Z,0
2018-02-04T03:20:05.239Z,0
2018-02-04T03:21:06.705Z,0
2018-02-04T03:22:08.338Z,0
2018-02-04T03:23:10.625Z,0
2018-02-04T03:24:12.118Z,0
2018-02-04T03:25:13.821Z,0
2018-02-04T03:26:15.382Z,0
2018-02-04T03:27:16.805Z,0
2018-02-04T03:28:18.341Z,0
2018-02-04T03:29:20.005Z,0
2018-02-04T03:30:21.378Z,0
2018-02-04T03:31:22.877Z,0
2018-02-04T03:32:24.513Z,0
2018-02-04T03:33:25.976Z,0
2018-02-04T03:34:27.419Z,0
2018-02-04T03:35:28.811Z,0
2018-02-04T03:36:30.463Z,0
2018-02-04T03:37:31.991Z,0
2018-02-04T03:38:33.709Z,0
2018-02-04T03:39:35.365Z,0
2018-02-04T03:40:36.869Z,0
2018-02-04T03:41:38.680Z,0
2018-02-04T03:42:40.114Z,0
2018-02-04T03:43:41.617Z,0
2018-02-04T03:44:43.132Z,0
2018-02-04T03:45:44.565Z,0
2018-02-04T03:46:46.490Z,0
2018-02-04T03:47:47.942Z,0
2018-02-04T03:48:49.585Z,0
2018-02-04T03:49:51.147Z,0
2018-02-04T03:50:52.543Z,0
2018-02-04T03:51:53.990Z,0
2018-02-04T03:52:55.418Z,0
2018-02-04T03:53:57.149Z,0
2018-02-04T03:54:58.596Z,0
2018-02-04T03:55:59.962Z,0
2018-02-04T03:57:01.465Z,0
2018-02-04T03:58:02.902Z,0
2018-02-04T03:59:04.302Z,0
2018-02-04T04:00:05.667Z,0
2018-02-04T04:01:07.056Z,0
2018-02-04T04:02:08.597Z,0
2018-02-04T04:03:10.019Z,0
2018-02-04T04:04:11.426Z,0
2018-02-04T04:05:12.817Z,0
2018-02-04T04:06:14.213Z,0
2018-02-04T04:07:15.732Z,0
2018-02-04T04:08:17.276Z,0
2018-02-04T04:09:18.729Z,0
2018-02-04T04:10:20.143Z,0
2018-02-04T04:11:21.631Z,0
2018-02-04T04:12:23.021Z,0
2018-02-04T04:13:24.477Z,0
2018-02-04T04:14:25.852Z,0
2018-02-04T04:15:27.389Z,0
2018-02-04T04:16:28.829Z,0
2018-02-04T04:17:30.198Z,0
2018-02-04T04:18:31.568Z,0
2018-02-04T04:19:32.978Z,0
2018-02-04T04:20:34.453Z,0
2018-02-04T04:21:35.890Z,0
2018-02-04T04:22:37.281Z,0
2018-02-04T04:23:38.755Z,0
2018-02-04T04:24:40.124Z,0
2018-02-04T04:25:41.563Z,0
2018-02-04T04:26:42.941Z,0
2018-02-04T04:27:44.371Z,0
2018-02-04T04:28:45.768Z,0
2018-02-04T04:29:47.144Z,0
2018-02-04T04:30:48.537Z,0
2018-02-04T04:31:50.152Z,0
2018-02-04T04:32:51.633Z,0
2018-02-04T04:33:53.112Z,0
2018-02-04T04:34:54.645Z,0
2018-02-04T04:35:56.020Z,0
2018-02-04T04:36:57.532Z,0
2018-02-04T04:37:58.973Z,0
2018-02-04T04:39:00.418Z,0
2018-02-04T04:40:01.812Z,0
2018-02-04T04:41:03.323Z,0
2018-02-04T04:42:04.845Z,0
2018-02-04T04:43:06.278Z,0
2018-02-04T04:44:07.656Z,0
2018-02-04T04:45:09.022Z,0
2018-02-04T04:46:10.429Z,0
2018-02-04T04:47:11.803Z,0
2018-02-04T04:48:13.256Z,0
2018-02-04T04:49:14.639Z,0
2018-02-04T04:50:16.108Z,0
2018-02-04T04:51:17.481Z,0
2018-02-04T04:52:18.847Z,0
2018-02-04T04:53:20.243Z,0
2018-02-04T04:54:21.732Z,0
2018-02-04T04:55:23.140Z,0
2018-02-04T04:56:24.538Z,0
2018-02-04T04:57:25.918Z,0
2018-02-04T04:58:27.291Z,0
2018-02-04T04:59:28.809Z,0
2018-02-04T05:00:30.246Z,0
2018-02-04T05:01:31.599Z,0
2018-02-04T05:02:33.077Z,0
2018-02-04T05:03:34.524Z,0
2018-02-04T05:04:36.065Z,0
2018-02-04T05:05:37.442Z,0
2018-02-04T05:06:38.831Z,0
2018-02-04T05:07:40.215Z,0
2018-02-04T05:08:41.634Z,0
2018-02-04T05:09:43.081Z,0
2018-02-04T05:10:44.459Z,0
2018-02-04T05:11:45.863Z,0
2018-02-04T05:12:47.226Z,0
2018-02-04T05:13:48.637Z,0
2018-02-04T05:14:50.090Z,0
2018-02-04T05:15:51.620Z,0
2018-02-04T05:16:53.067Z,0
2018-02-04T05:17:54.585Z,0
2018-02-04T05:18:56.094Z,0
2018-02-04T05:19:57.469Z,0
2018-02-04T05:20:58.898Z,0
2018-02-04T05:22:00.332Z,0
2018-02-04T05:23:01.734Z,0
2018-02-04T05:24:03.400Z,0
2018-02-04T05:25:04.838Z,0
2018-02-04T05:26:06.397Z,0
2018-02-04T05:27:07.815Z,0
2018-02-04T05:28:09.463Z,0
2018-02-04T05:29:10.835Z,0
2018-02-04T05:30:12.294Z,0
2018-02-04T05:31:13.766Z,0
2018-02-04T05:32:15.433Z,0
2018-02-04T05:33:17.464Z,0
2018-02-04T05:34:19.308Z,0
2018-02-04T05:35:20.748Z,0
2018-02-04T05:36:22.129Z,0
2018-02-04T05:37:23.629Z,0
2018-02-04T05:38:25.097Z,0
2018-02-04T05:39:26.622Z,0
2018-02-04T05:40:28.039Z,0
2018-02-04T05:41:29.500Z,0
2018-02-04T05:42:30.929Z,0
2018-02-04T05:43:32.332Z,0
2018-02-04T05:44:33.720Z,0
2018-02-04T05:45:35.169Z,0
2018-02-04T05:46:36.588Z,0
2018-02-04T05:47:38.057Z,0
2018-02-04T05:48:39.437Z,0
2018-02-04T05:49:40.966Z,0
2018-02-04T05:50:42.399Z,0
2018-02-04T05:51:43.931Z,0
2018-02-04T05:52:45.355Z,0
2018-02-04T05:53:46.797Z,0
2018-02-04T05:54:48.317Z,0
2018-02-04T05:55:49.678Z,0
2018-02-04T05:56:51.112Z,0
2018-02-04T05:57:52.597Z,0
2018-02-04T05:58:54.043Z,0
2018-02-04T05:59:55.533Z,0
2018-02-04T06:00:57.341Z,0
2018-02-04T06:01:58.738Z,0
2018-02-04T06:03:00.270Z,0
2018-02-04T06:04:02.326Z,0
2018-02-04T06:05:04.312Z,0
2018-02-04T06:06:05.723Z,0
2018-02-04T06:07:07.096Z,0
2018-02-04T06:08:08.498Z,0
2018-02-04T06:09:09.884Z,0
2018-02-04T06:10:11.299Z,0
2018-02-04T06:11:12.774Z,0
2018-02-04T06:12:14.217Z,0
2018-02-04T06:13:16.269Z,0
2018-02-04T06:14:18.324Z,0
2018-02-04T06:15:20.398Z,0
2018-02-04T06:16:22.496Z,0
2018-02-04T06:17:24.538Z,0
2018-02-04T06:18:25.982Z,0
2018-02-04T06:19:27.447Z,0
2018-02-04T06:20:29.016Z,0
2018-02-04T06:21:30.436Z,0
2018-02-04T06:22:31.813Z,0
2018-02-04T06:23:33.226Z,0
2018-02-04T06:24:34.629Z,0
2018-02-04T06:25:36.125Z,0
2018-02-04T06:26:37.526Z,0
2018-02-04T06:27:39.006Z,0
2018-02-04T06:28:40.402Z,0
2018-02-04T06:29:41.808Z,0
2018-02-04T06:30:43.223Z,0
2018-02-04T06:31:44.632Z,0
2018-02-04T06:32:46.178Z,0
2018-02-04T06:33:47.577Z,0
2018-02-04T06:34:49.048Z,0
2018-02-04T06:35:50.464Z,0
2018-02-04T06:36:51.851Z,0
2018-02-04T06:37:53.268Z,0
2018-02-04T06:38:54.710Z,0
2018-02-04T06:39:56.091Z,0
2018-02-04T06:40:57.504Z,0
2018-02-04T06:41:58.900Z,0
2018-02-04T06:43:00.393Z,0
2018-02-04T06:44:01.763Z,0
2018-02-04T06:45:03.211Z,0
2018-02-04T06:46:04.781Z,0
2018-02-04T06:47:06.202Z,0
2018-02-04T06:48:07.586Z,0
2018-02-04T06:49:09.035Z,0
2018-02-04T06:50:10.411Z,0
2018-02-04T06:51:12.508Z,0
2018-02-04T06:52:13.861Z,0
2018-02-04T06:53:15.235Z,0
2018-02-04T06:54:16.612Z,0
2018-02-04T06:55:18.035Z,0
2018-02-04T06:56:19.526Z,0
2018-02-04T06:57:20.972Z,0
2018-02-04T06:58:22.519Z,0
2018-02-04T06:59:23.981Z,0
2018-02-04T07:00:25.410Z,5
2018-02-04T07:01:26.824Z,5
2018-02-04T07:02:28.256Z,5
2018-02-04T07:03:29.667Z,5
2018-02-04T07:04:31.096Z,5
2018-02-04T07:05:32.496Z,5
2018-02-04T07:06:34.032Z,10
2018-02-04T07:07:35.553Z,10
2018-02-04T07:08:36.995Z,10
2018-02-04T07:09:38.443Z,10
2018-02-04T07:10:39.842Z,15
2018-02-04T07:11:41.236Z,15
2018-02-04T07:12:42.688Z,15
2018-02-04T07:13:44.019Z,15
2018-02-04T07:14:45.423Z,15
2018-02-04T07:15:46.790Z,15
2018-02-04T07:16:48.161Z,15
2018-02-04T07:17:49.657Z,20
2018-02-04T07:18:51.053Z,20
2018-02-04T07:19:52.466Z,20
2018-02-04T07:20:53.864Z,20
2018-02-04T07:21:55.238Z,25
2018-02-04T07:22:56.627Z,25
2018-02-04T07:23:58.042Z,25
2018-02-04T07:24:59.453Z,25
2018-02-04T07:26:00.868Z,30
2018-02-04T07:27:02.260Z,35
2018-02-04T07:28:03.781Z,35
2018-02-04T07:29:05.268Z,40
2018-02-04T07:30:06.637Z,45
2018-02-04T07:31:08.197Z,45
2018-02-04T07:32:09.629Z,45
2018-02-04T07:33:11.028Z,45
2018-02-04T07:34:12.426Z,50
2018-02-04T07:35:13.875Z,50
2018-02-04T07:36:15.262Z,55
2018-02-04T07:37:16.689Z,55
2018-02-04T07:38:18.100Z,60
2018-02-04T07:39:19.621Z,65
2018-02-04T07:40:21.070Z,70
2018-02-04T07:41:22.448Z,75
2018-02-04T07:42:23.887Z,75
2018-02-04T07:43:25.272Z,85
2018-02-04T07:44:26.787Z,90
2018-02-04T07:45:28.393Z,90
2018-02-04T07:46:29.775Z,100
2018-02-04T07:47:31.186Z,105
2018-02-04T07:48:32.565Z,105
2018-02-04T07:49:34.025Z,110
2018-02-04T07:50:35.451Z,115
2018-02-04T07:51:36.932Z,120
2018-02-04T07:52:38.713Z,125
2018-02-04T07:53:40.205Z,130
2018-02-04T07:54:41.592Z,140
2018-02-04T07:55:42.983Z,145
2018-02-04T07:56:44.457Z,150
2018-02-04T07:57:46.321Z,155
2018-02-04T07:58:47.808Z,150
2018-02-04T07:59:49.230Z,150
2018-02-04T08:00:50.608Z,155
2018-02-04T08:01:51.994Z,150
2018-02-04T08:02:53.426Z,150
2018-02-04T08:03:54.831Z,155
2018-02-04T08:04:56.328Z,155
2018-02-04T08:05:57.698Z,160
2018-02-04T08:06:59.075Z,160
2018-02-04T08:08:00.591Z,175
2018-02-04T08:09:02.007Z,195
2018-02-04T08:10:03.666Z,210
2018-02-04T08:11:05.049Z,220
2018-02-04T08:12:06.527Z,225
2018-02-04T08:13:09.337Z,225
2018-02-04T08:14:10.757Z,230
2018-02-04T08:15:12.144Z,220
2018-02-04T08:16:13.585Z,205
2018-02-04T08:17:15.092Z,185
2018-02-04T08:18:16.556Z,175
2018-02-04T08:19:18.003Z,175
2018-02-04T08:20:19.369Z,185
2018-02-04T08:21:20.756Z,200
2018-02-04T08:22:22.472Z,225
2018-02-04T08:23:23.897Z,240
2018-02-04T08:24:25.282Z,240
2018-02-04T08:25:26.656Z,245
2018-02-04T08:26:29.861Z,235
2018-02-04T08:27:31.294Z,245
2018-02-04T08:28:32.803Z,235
2018-02-04T08:29:34.223Z,245
2018-02-04T08:30:35.616Z,245
2018-02-04T08:31:37.119Z,240
2018-02-04T08:32:39.129Z,240
2018-02-04T08:33:40.617Z,240
2018-02-04T08:34:45.921Z,230
2018-02-04T08:35:47.371Z,225
2018-02-04T08:36:48.887Z,225
2018-02-04T08:37:50.268Z,225
2018-02-04T08:38:51.642Z,220
2018-02-04T08:39:53.726Z,215
2018-02-04T08:40:54.956Z,210
2018-02-04T08:41:56.450Z,205
2018-02-04T08:42:57.880Z,195
2018-02-04T08:43:59.253Z,180
2018-02-04T08:45:00.823Z,165
2018-02-04T08:46:02.284Z,145
2018-02-04T08:47:03.777Z,135
2018-02-04T08:48:05.308Z,125
2018-02-04T08:49:06.682Z,120
2018-02-04T08:50:08.206Z,115
2018-02-04T08:51:09.590Z,110
2018-02-04T08:52:10.981Z,100
2018-02-04T08:53:12.377Z,100
2018-02-04T08:54:13.834Z,95
2018-02-04T08:55:15.244Z,85
2018-02-04T08:56:16.655Z,85
2018-02-04T08:57:18.059Z,85
2018-02-04T08:58:19.512Z,85
2018-02-04T08:59:20.984Z,90
2018-02-04T09:00:22.355Z,90
2018-02-04T09:01:24.498Z,90
2018-02-04T09:02:25.901Z,90
2018-02-04T09:03:27.347Z,85
2018-02-04T09:04:28.796Z,85
2018-02-04T09:05:30.265Z,80
2018-02-04T09:06:31.632Z,85
2018-02-04T09:07:33.214Z,80
2018-02-04T09:08:34.606Z,80
2018-02-04T09:09:36.539Z,85
2018-02-04T09:10:37.997Z,90
2018-02-04T09:11:39.367Z,90
2018-02-04T09:12:40.766Z,95
2018-02-04T09:13:42.142Z,105
2018-02-04T09:14:43.668Z,110
2018-02-04T09:15:45.055Z,120
2018-02-04T09:16:47.394Z,115
2018-02-04T09:17:48.711Z,110
2018-02-04T09:18:50.265Z,105
2018-02-04T09:19:51.615Z,110
2018-02-04T09:20:53.024Z,120
2018-02-04T09:21:54.469Z,135
2018-02-04T09:22:55.919Z,155
2018-02-04T09:23:57.860Z,165
2018-02-04T09:24:59.299Z,170
2018-02-04T09:26:04.718Z,170
2018-02-04T09:27:06.114Z,175
2018-02-04T09:28:07.538Z,175
2018-02-04T09:29:08.925Z,180
2018-02-04T09:30:10.358Z,180
2018-02-04T09:31:11.809Z,185
2018-02-04T09:32:13.262Z,190
2018-02-04T09:33:14.757Z,200
2018-02-04T09:34:16.222Z,215
2018-02-04T09:35:17.691Z,230
2018-02-04T09:36:19.080Z,245
2018-02-04T09:37:20.465Z,250
2018-02-04T09:38:21.933Z,260
2018-02-04T09:39:23.414Z,265
2018-02-04T09:40:24.826Z,270
2018-02-04T09:41:26.333Z,275
2018-02-04T09:42:27.752Z,280
2018-02-04T09:43:29.203Z,285
2018-02-04T09:44:30.644Z,290
2018-02-04T09:45:32.050Z,290
2018-02-04T09:46:33.489Z,290
2018-02-04T09:47:34.897Z,285
2018-02-04T09:48:36.399Z,270
2018-02-04T09:49:37.894Z,260
2018-02-04T09:50:39.285Z,255
2018-02-04T09:51:40.711Z,245
2018-02-04T09:52:42.111Z,245
2018-02-04T09:53:43.528Z,260
2018-02-04T09:54:44.915Z,290
2018-02-04T09:55:46.333Z,305
2018-02-04T09:56:47.767Z,300
2018-02-04T09:57:49.197Z,290
2018-02-04T09:58:50.601Z,295
2018-02-04T09:59:51.998Z,305
2018-02-04T10:00:53.433Z,305
2018-02-04T10:01:54.866Z,305
2018-02-04T10:02:56.304Z,325
2018-02-04T10:03:57.715Z,380
2018-02-04T10:04:59.106Z,455
2018-02-04T10:06:00.518Z,485
2018-02-04T10:07:01.944Z,505
2018-02-04T10:08:03.412Z,535
2018-02-04T10:09:04.827Z,590
2018-02-04T10:10:06.201Z,560
2018-02-04T10:11:07.634Z,555
2018-02-04T10:12:09.046Z,615
2018-02-04T10:13:10.465Z,555
2018-02-04T10:14:11.901Z,500
2018-02-04T10:15:13.327Z,470
2018-02-04T10:16:14.733Z,445
2018-02-04T10:17:16.155Z,430
2018-02-04T10:18:17.599Z,690
2018-02-04T10:19:19.053Z,710
2018-02-04T10:20:20.493Z,715
2018-02-04T10:21:21.963Z,720
2018-02-04T10:22:23.432Z,730
2018-02-04T10:23:24.870Z,755
2018-02-04T10:24:26.294Z,745
2018-02-04T10:25:27.749Z,750
2018-02-04T10:26:29.114Z,755
2018-02-04T10:27:30.495Z,775
2018-02-04T10:28:31.935Z,770
2018-02-04T10:29:33.342Z,780
2018-02-04T10:30:34.738Z,800
2018-02-04T10:31:36.129Z,805
2018-02-04T10:32:37.553Z,805
2018-02-04T10:33:39.001Z,770
2018-02-04T10:34:40.445Z,725
2018-02-04T10:35:41.865Z,705
2018-02-04T10:36:43.278Z,705
2018-02-04T10:37:44.748Z,695
2018-02-04T10:38:46.133Z,700
2018-02-04T10:39:47.528Z,700
2018-02-04T10:40:48.960Z,700
2018-02-04T10:41:50.374Z,705
2018-02-04T10:42:51.771Z,705
2018-02-04T10:43:53.183Z,705
2018-02-04T10:44:54.606Z,705
2018-02-04T10:45:56.016Z,705
2018-02-04T10:46:57.453Z,705
2018-02-04T10:47:58.905Z,710
2018-02-04T10:49:00.341Z,715
2018-02-04T10:50:01.759Z,715
2018-02-04T10:51:03.187Z,650
2018-02-04T10:52:04.578Z,665
2018-02-04T10:53:06.018Z,730
2018-02-04T10:54:07.439Z,755
2018-02-04T10:55:08.944Z,775
2018-02-04T10:56:10.374Z,775
2018-02-04T10:57:11.759Z,695
2018-02-04T10:58:13.216Z,550
2018-02-04T10:59:14.607Z,545
2018-02-04T11:00:16.053Z,625
2018-02-04T11:01:17.490Z,700
2018-02-04T11:02:18.935Z,505
2018-02-04T11:03:20.385Z,500
2018-02-04T11:04:21.787Z,535
2018-02-04T11:05:23.228Z,540
2018-02-04T11:06:24.634Z,530
2018-02-04T11:07:26.076Z,570
2018-02-04T11:08:27.537Z,445
2018-02-04T11:09:28.907Z,450
2018-02-04T11:10:30.321Z,380
2018-02-04T11:11:31.711Z,345
2018-02-04T11:12:33.101Z,330
2018-02-04T11:13:34.482Z,325
2018-02-04T11:14:35.930Z,335
2018-02-04T11:15:37.315Z,340
2018-02-04T11:16:38.871Z,410
2018-02-04T11:17:40.323Z,510
2018-02-04T11:18:41.805Z,580
2018-02-04T11:19:43.214Z,605
2018-02-04T11:20:44.639Z,575
2018-02-04T11:21:46.091Z,475
2018-02-04T11:22:47.519Z,390
2018-02-04T11:23:48.957Z,345
2018-02-04T11:24:50.434Z,300
2018-02-04T11:25:51.906Z,265
2018-02-04T11:26:53.306Z,255
2018-02-04T11:27:54.752Z,245
2018-02-04T11:28:56.153Z,235
2018-02-04T11:29:57.542Z,225
2018-02-04T11:30:58.987Z,225
2018-02-04T11:32:00.387Z,230
2018-02-04T11:33:01.806Z,240
2018-02-04T11:34:03.278Z,260
2018-02-04T11:35:04.667Z,275
2018-02-04T11:36:06.085Z,345
2018-02-04T11:37:07.494Z,455
2018-02-04T11:38:08.962Z,450
2018-02-04T11:39:10.393Z,520
2018-02-04T11:40:11.845Z,650
2018-02-04T11:41:13.237Z,590
2018-02-04T11:42:14.696Z,665
2018-02-04T11:43:16.131Z,630
2018-02-04T11:44:17.545Z,675
2018-02-04T11:45:19.048Z,590
2018-02-04T11:46:20.512Z,800
2018-02-04T11:47:22.014Z,835
2018-02-04T11:48:23.488Z,835
2018-02-04T11:49:24.944Z,810
2018-02-04T11:50:26.363Z,795
2018-02-04T11:51:27.829Z,575
2018-02-04T11:52:29.247Z,440
2018-02-04T11:53:30.640Z,320
2018-02-04T11:54:32.037Z,310
2018-02-04T11:55:33.446Z,335
2018-02-04T11:56:34.861Z,785
2018-02-04T11:57:36.365Z,510
2018-02-04T11:58:37.764Z,500
2018-02-04T11:59:39.275Z,535
2018-02-04T12:00:40.666Z,435
2018-02-04T12:01:42.079Z,355
2018-02-04T12:02:43.492Z,315
2018-02-04T12:03:44.925Z,310
2018-02-04T12:04:46.376Z,315
2018-02-04T12:05:47.771Z,375
2018-02-04T12:06:49.224Z,375
2018-02-04T12:07:50.679Z,375
2018-02-04T12:08:52.065Z,415
2018-02-04T12:09:53.534Z,445
2018-02-04T12:10:54.928Z,405
2018-02-04T12:11:56.314Z,335
2018-02-04T12:12:57.772Z,235
2018-02-04T12:13:59.298Z,170
2018-02-04T12:15:00.744Z,170
2018-02-04T12:16:02.143Z,160
2018-02-04T12:17:03.614Z,155
2018-02-04T12:18:04.998Z,120
2018-02-04T12:19:06.387Z,85
2018-02-04T12:20:07.808Z,70
2018-02-04T12:21:09.234Z,70
2018-02-04T12:22:10.654Z,85
2018-02-04T12:23:12.039Z,120
2018-02-04T12:24:13.517Z,170
2018-02-04T12:25:14.941Z,210
2018-02-04T12:26:16.383Z,240
2018-02-04T12:27:18.339Z,265
2018-02-04T12:28:19.728Z,265
2018-02-04T12:29:21.124Z,285
2018-02-04T12:30:22.892Z,270
2018-02-04T12:31:25.590Z,225
2018-02-04T12:32:27.005Z,185
2018-02-04T12:33:28.439Z,160
2018-02-04T12:34:29.843Z,155
2018-02-04T12:35:31.279Z,155
2018-02-04T12:36:32.724Z,150
2018-02-04T12:37:34.190Z,150
2018-02-04T12:38:35.582Z,130
2018-02-04T12:39:36.971Z,105
2018-02-04T12:40:38.418Z,100
2018-02-04T12:41:39.850Z,100
2018-02-04T12:42:41.285Z,120
2018-02-04T12:43:42.693Z,150
2018-02-04T12:44:44.184Z,180
2018-02-04T12:45:45.551Z,180
2018-02-04T12:46:46.927Z,165
2018-02-04T12:47:48.331Z,150
2018-02-04T12:48:49.755Z,130
2018-02-04T12:49:51.187Z,110
2018-02-04T12:50:52.596Z,95
2018-02-04T12:51:54.000Z,85
2018-02-04T12:52:55.440Z,80
2018-02-04T12:53:56.836Z,85
2018-02-04T12:54:58.235Z,95
2018-02-04T12:55:59.694Z,125
2018-02-04T12:57:01.328Z,170
2018-02-04T12:58:03.060Z,225
2018-02-04T12:59:04.445Z,235
2018-02-04T13:00:06.009Z,215
2018-02-04T13:01:07.461Z,200
2018-02-04T13:02:08.882Z,180
2018-02-04T13:03:10.256Z,180
2018-02-04T13:04:11.641Z,205
2018-02-04T13:05:13.228Z,210
2018-02-04T13:06:14.900Z,180
2018-02-04T13:07:16.454Z,140
2018-02-04T13:08:18.002Z,110
2018-02-04T13:09:19.424Z,95
2018-02-04T13:10:20.802Z,90
2018-02-04T13:11:22.230Z,95
2018-02-04T13:12:23.881Z,110
2018-02-04T13:13:25.339Z,130
2018-02-04T13:14:26.763Z,175
2018-02-04T13:15:28.317Z,225
2018-02-04T13:16:29.871Z,265
2018-02-04T13:17:31.408Z,280
2018-02-04T13:18:33.020Z,275
2018-02-04T13:19:34.496Z,270
2018-02-04T13:20:35.913Z,260
2018-02-04T13:21:37.403Z,235
2018-02-04T13:22:38.908Z,235
2018-02-04T13:23:40.288Z,245
2018-02-04T13:24:41.694Z,265
2018-02-04T13:25:43.092Z,250
2018-02-04T13:26:44.543Z,225
2018-02-04T13:27:46.020Z,210
2018-02-04T13:28:47.457Z,230
2018-02-04T13:29:48.871Z,250
2018-02-04T13:30:50.307Z,295
2018-02-04T13:31:51.704Z,360
2018-02-04T13:32:53.119Z,415
2018-02-04T13:33:54.529Z,420
2018-02-04T13:34:55.929Z,385
2018-02-04T13:35:57.330Z,350
2018-02-04T13:36:58.746Z,355
2018-02-04T13:38:00.191Z,375
2018-02-04T13:39:01.622Z,380
2018-02-04T13:40:03.074Z,395
2018-02-04T13:41:04.491Z,385
2018-02-04T13:42:05.902Z,385
2018-02-04T13:43:07.299Z,410
2018-02-04T13:44:08.723Z,430
2018-02-04T13:45:10.186Z,435
2018-02-04T13:46:11.557Z,420
2018-02-04T13:47:13.150Z,400
2018-02-04T13:48:14.608Z,390
2018-02-04T13:49:16.038Z,405
2018-02-04T13:50:17.498Z,465
2018-02-04T13:51:18.942Z,565
2018-02-04T13:52:20.427Z,700
2018-02-04T13:53:21.914Z,570
2018-02-04T13:54:23.325Z,560
2018-02-04T13:55:24.730Z,505
2018-02-04T13:56:26.146Z,485
2018-02-04T13:57:27.609Z,460
2018-02-04T13:58:29.085Z,505
2018-02-04T13:59:30.481Z,480
2018-02-04T14:00:31.887Z,530
2018-02-04T14:01:33.376Z,430
2018-02-04T14:02:34.826Z,375
2018-02-04T14:03:36.214Z,365
2018-02-04T14:04:37.694Z,395
2018-02-04T14:05:39.113Z,430
2018-02-04T14:06:40.591Z,435
2018-02-04T14:07:41.977Z,490
2018-02-04T14:08:43.860Z,635
2018-02-04T14:09:45.348Z,575
2018-02-04T14:10:46.834Z,590
2018-02-04T14:11:48.209Z,420
2018-02-04T14:12:49.665Z,425
2018-02-04T14:13:51.146Z,355
2018-02-04T14:14:52.600Z,330
2018-02-04T14:15:54.062Z,430
2018-02-04T14:16:55.460Z,375
2018-02-04T14:17:56.879Z,300
2018-02-04T14:18:58.308Z,335
2018-02-04T14:19:59.694Z,400
2018-02-04T14:21:01.124Z,380
2018-02-04T14:22:02.551Z,345
2018-02-04T14:23:04.005Z,305
2018-02-04T14:24:05.384Z,280
2018-02-04T14:25:06.783Z,265
2018-02-04T14:26:08.178Z,245
2018-02-04T14:27:09.639Z,235
2018-02-04T14:28:11.053Z,235
2018-02-04T14:29:12.549Z,255
2018-02-04T14:30:13.978Z,280
2018-02-04T14:31:15.410Z,285
2018-02-04T14:32:16.817Z,295
2018-02-04T14:33:18.218Z,275
2018-02-04T14:34:19.631Z,260
2018-02-04T14:35:21.020Z,260
2018-02-04T14:36:22.474Z,265
2018-02-04T14:37:23.865Z,255
2018-02-04T14:38:25.306Z,265